PHX Airport (Phoenix Sky Harbor Intl) Information

FAA: PHX - ICAO: KPHX

PHX Airport Location

State Arizona
County Maricopa
City Phoenix
PHX Airport is 3 miles east of Phoenix, AZ.
Latitude 33-26-03.4000N
Longitude 112-00-41.7000W
Elevation 1,134ft

KPHX Airport METARs

METAR KPHX 032251Z 00000KT 10SM CLR 26/01 A2994 RMK AO2 SLP127 T02610006
Altimeter 29.94"
Temperature 26.1°C (79.0°F)
Wind 0° at 0KT
Clouds Skies are clear.
Visibility 10.0mi
Time observed: 2021-12-03T22:51:00Z

PHX Airport Details

Status Operational
Activation April 1940
Ownership Public
Usage Public
Chart PHOENIX
ATC on-site Yes
Beacon schedule sunset-sunrise
Beacon color clear green

PHX Airport Contacts

Owner CITY OF PHOENIX
Owner address 2485 E BUCKEYE RD, PHOENIX, AZ 85034
Owner phone 602-306-2500
Manager J. BRIAN O'NEILL
Manager address PHX-MESA GATEWAY AIRPORT AUTHORITY, 5835 S. SOSSAMAN ROAD, MESA, AZ 85212-0919
Manager phone (480) 988-7708

PHX Airport (Phoenix Sky Harbor Intl) Radio Frequencies

PHX (Airport) Radio Frequencies

UNICOM N/A
Common traffic advisory frequency (CTAF) N/A